Aérodrome :
LOGIN :

S'inscrire | Disclaimer

   EN    FR    IT 

 










Légende :    VFR   VFR Marginal   IFR   IFR Intensif   IFR Très Intensif
Visi : 
Plafond : 
>= 8 km
>= 3000ft
5 à 8 km
1000 à 3000 ft
1500m à 5 km
500 à 1000 ft
800 à 1500m
200 à 500 ft
< 800m
< 200 ft
Symboles :   Orages  Brouillard  Fortes neiges  Fortes précipitations  Vent > 20 kt
SIGMETs :   Divers  Orages  Givrage  Turbulence  Onde Orograph.  Cendres Volcan.






- Altitude de l'aérodrome : 154 ft
- Code IATA : SZZ


EPSC - Szczecin Goleniow

DERNIER METAR :
  • 250030Z 14011KT 3000 -RA BR OVC003 02/02 Q0997

METARs EXPIRÉS :
  • 250000Z 14012KT 3000 -RADZ BR BKN003 02/01 Q0998
  • 242330Z 13012KT 9999 -RA BKN004 02/01 Q0999
  • 242300Z 14013KT 9999 -RA BKN004 02/01 Q1000
  • 242230Z 14015KT 7000 -RA OVC004 02/01 Q1000
  • 242200Z 14015KT 9999 -RA SCT005 OVC007 03/01 Q1001

TAF TAF EPSC
Valide du 25 à 00h jusqu'au 26 à 00h UTC


242330Z 2500/2524 17010KT 9999 -RA BKN010
TEMPO 2500/2505 4000 RADZ BKN004
BECMG 2505/2508 23012KT BKN030
TEMPO 2506/2518 25018G30KT BKN025TCU



MET'MAP, la Météo Aéronautique d'un coup d'oeil ! - Copyright ORBIFLY Décembre 2007 - Disclaimer

ORBIFLY MET'MAP TEAM :

Programmation & Développement : Alexandra Zaïnal
Sur une idée originale de : Baudouin d'Aumeries
Assistance à la programmation : Marc-Olivier Méhu
Soutien technique & logistique : Manuel Goepfert

Contact : metmap@orbifly.com




SOURCES & CREDITS :

   NOAA